N30CX KFOE-KSTL
Flight info
| Callsign | N30CX |
|---|---|
| Flight time | 1h 13m |
| Altitude | 170 |
| Route | DODSN ANX |
| Aircraft | SF50/L-VGDW/C |
Departure
| Time | 2026-05-06 22:19 |
|---|---|
| Airport | Topeka Regional Airport (KFOE) |
Arrival
| Time | 2026-05-06 23:32 |
|---|---|
| Airport | St. Louis Lambert International Airport (KSTL) |
| Time | Latitude | Longitude | Altitude | Speed | Heading |
|---|---|---|---|---|---|
| 2026-05-06 22:03 | 38.94630 | -95.67396 | 1060 ft | 0 kts | 45° |
| 2026-05-06 22:13 | 38.94687 | -95.67388 | 1059 ft | 18 kts | 355° |
| 2026-05-06 22:13 | 38.94750 | -95.67275 | 1059 ft | 19 kts | 86° |
| 2026-05-06 22:13 | 38.94798 | -95.67175 | 1059 ft | 10 kts | 1° |
| 2026-05-06 22:14 | 38.94890 | -95.67181 | 1059 ft | 18 kts | 5° |
| 2026-05-06 22:14 | 38.95090 | -95.67187 | 1059 ft | 26 kts | 359° |
| 2026-05-06 22:14 | 38.95280 | -95.67194 | 1059 ft | 23 kts | 359° |
| 2026-05-06 22:14 | 38.95359 | -95.67156 | 1059 ft | 0 kts | 309° |
| 2026-05-06 22:15 | 38.95423 | -95.67187 | 1059 ft | 19 kts | 7° |
| 2026-05-06 22:15 | 38.95504 | -95.67126 | 1058 ft | 17 kts | 74° |
| 2026-05-06 22:15 | 38.95551 | -95.66898 | 1054 ft | 25 kts | 77° |
| 2026-05-06 22:15 | 38.95571 | -95.66782 | 1054 ft | 0 kts | 72° |
| 2026-05-06 22:16 | 38.95583 | -95.66727 | 1054 ft | 31 kts | 73° |
| 2026-05-06 22:16 | 38.95607 | -95.66406 | 1047 ft | 34 kts | 94° |
| 2026-05-06 22:16 | 38.95592 | -95.66129 | 1045 ft | 31 kts | 91° |
| 2026-05-06 22:16 | 38.95573 | -95.65855 | 1040 ft | 26 kts | 108° |
| 2026-05-06 22:17 | 38.95558 | -95.65824 | 1039 ft | 0 kts | 135° |
| 2026-05-06 22:18 | 38.95499 | -95.65791 | 1039 ft | 14 kts | 208° |
| 2026-05-06 22:18 | 38.95308 | -95.65961 | 1038 ft | 70 kts | 220° |
| 2026-05-06 22:19 | 38.94767 | -95.66514 | 1264 ft | 113 kts | 217° |
| 2026-05-06 22:19 | 38.93883 | -95.66818 | 1610 ft | 159 kts | 173° |
| 2026-05-06 22:19 | 38.92824 | -95.66049 | 2127 ft | 193 kts | 127° |
| 2026-05-06 22:19 | 38.92471 | -95.64122 | 2859 ft | 211 kts | 83° |
| 2026-05-06 22:20 | 38.92602 | -95.62167 | 3603 ft | 220 kts | 84° |
| 2026-05-06 22:20 | 38.92562 | -95.60210 | 4345 ft | 226 kts | 102° |
| 2026-05-06 22:20 | 38.92103 | -95.58295 | 5109 ft | 228 kts | 110° |
| 2026-05-06 22:20 | 38.91499 | -95.56427 | 5876 ft | 229 kts | 112° |
| 2026-05-06 22:21 | 38.90782 | -95.54378 | 6723 ft | 230 kts | 114° |
| 2026-05-06 22:21 | 38.90089 | -95.52439 | 7517 ft | 230 kts | 114° |
| 2026-05-06 22:21 | 38.89428 | -95.50601 | 8263 ft | 229 kts | 114° |
| 2026-05-06 22:21 | 38.88767 | -95.48766 | 9000 ft | 229 kts | 114° |
| 2026-05-06 22:22 | 38.88108 | -95.46938 | 9728 ft | 229 kts | 114° |
| 2026-05-06 22:22 | 38.87382 | -95.44926 | 10520 ft | 228 kts | 115° |
| 2026-05-06 22:22 | 38.86626 | -95.42835 | 11335 ft | 227 kts | 115° |
| 2026-05-06 22:22 | 38.85931 | -95.40910 | 12076 ft | 227 kts | 115° |
| 2026-05-06 22:23 | 38.85235 | -95.38986 | 12808 ft | 226 kts | 115° |
| 2026-05-06 22:23 | 38.84566 | -95.37138 | 13488 ft | 225 kts | 115° |
| 2026-05-06 22:23 | 38.83857 | -95.35180 | 14205 ft | 225 kts | 115° |
| 2026-05-06 22:23 | 38.83096 | -95.33078 | 14961 ft | 224 kts | 116° |
| 2026-05-06 22:24 | 38.82391 | -95.31137 | 15657 ft | 223 kts | 116° |
| 2026-05-06 22:24 | 38.81695 | -95.29217 | 16347 ft | 222 kts | 116° |
| 2026-05-06 22:24 | 38.81012 | -95.27338 | 16884 ft | 228 kts | 116° |
| 2026-05-06 22:24 | 38.80307 | -95.25398 | 16984 ft | 248 kts | 116° |
| 2026-05-06 22:25 | 38.79433 | -95.22994 | 16997 ft | 268 kts | 116° |
| 2026-05-06 22:25 | 38.78497 | -95.20423 | 16993 ft | 282 kts | 116° |
| 2026-05-06 22:25 | 38.77587 | -95.17925 | 16990 ft | 291 kts | 116° |
| 2026-05-06 22:25 | 38.76640 | -95.15326 | 16988 ft | 297 kts | 116° |
| 2026-05-06 22:26 | 38.75734 | -95.12842 | 16989 ft | 301 kts | 116° |
| 2026-05-06 22:26 | 38.74798 | -95.10280 | 16976 ft | 303 kts | 116° |
| 2026-05-06 22:26 | 38.73749 | -95.07410 | 16969 ft | 304 kts | 116° |
| 2026-05-06 22:26 | 38.72958 | -95.04541 | 16947 ft | 307 kts | 94° |
| 2026-05-06 22:27 | 38.73470 | -95.01693 | 16974 ft | 306 kts | 64° |
| 2026-05-06 22:27 | 38.74399 | -94.99252 | 16967 ft | 306 kts | 62° |
| 2026-05-06 22:27 | 38.75374 | -94.96824 | 16964 ft | 306 kts | 62° |
| 2026-05-06 22:27 | 38.76463 | -94.94157 | 16963 ft | 307 kts | 62° |
| 2026-05-06 22:28 | 38.77516 | -94.91593 | 16962 ft | 307 kts | 62° |
| 2026-05-06 22:28 | 38.78497 | -94.89208 | 16961 ft | 307 kts | 62° |
| 2026-05-06 22:28 | 38.79501 | -94.86768 | 16959 ft | 307 kts | 62° |
| 2026-05-06 22:28 | 38.80491 | -94.84360 | 16958 ft | 307 kts | 62° |
| 2026-05-06 22:29 | 38.81511 | -94.81880 | 16956 ft | 306 kts | 62° |
| 2026-05-06 22:29 | 38.82600 | -94.79227 | 16969 ft | 305 kts | 62° |
| 2026-05-06 22:29 | 38.83635 | -94.76706 | 16992 ft | 305 kts | 62° |
| 2026-05-06 22:29 | 38.84614 | -94.74318 | 17000 ft | 305 kts | 62° |
| 2026-05-06 22:30 | 38.85605 | -94.71899 | 17001 ft | 306 kts | 62° |
| 2026-05-06 22:30 | 38.86586 | -94.69503 | 17001 ft | 306 kts | 62° |
| 2026-05-06 22:30 | 38.87584 | -94.67065 | 16914 ft | 306 kts | 62° |
| 2026-05-06 22:30 | 38.88663 | -94.64424 | 16856 ft | 304 kts | 62° |
| 2026-05-06 22:31 | 38.89715 | -94.61850 | 16784 ft | 304 kts | 62° |
| 2026-05-06 22:31 | 38.90702 | -94.59431 | 16767 ft | 303 kts | 62° |
| 2026-05-06 22:31 | 38.91675 | -94.57044 | 16779 ft | 304 kts | 62° |
| 2026-05-06 22:31 | 38.92657 | -94.54634 | 16781 ft | 305 kts | 62° |
| 2026-05-06 22:32 | 38.93640 | -94.52219 | 16902 ft | 307 kts | 62° |
| 2026-05-06 22:32 | 38.94722 | -94.49561 | 16959 ft | 309 kts | 62° |
| 2026-05-06 22:32 | 38.95793 | -94.46923 | 17031 ft | 311 kts | 62° |
| 2026-05-06 22:32 | 38.96793 | -94.44463 | 17005 ft | 311 kts | 62° |
| 2026-05-06 22:33 | 38.97795 | -94.41994 | 17000 ft | 310 kts | 62° |
| 2026-05-06 22:33 | 38.98785 | -94.39552 | 16999 ft | 309 kts | 62° |
| 2026-05-06 22:33 | 38.99823 | -94.36990 | 16999 ft | 309 kts | 62° |
| 2026-05-06 22:33 | 39.00921 | -94.34278 | 16998 ft | 309 kts | 62° |
| 2026-05-06 22:34 | 39.01915 | -94.31821 | 16997 ft | 308 kts | 62° |
| 2026-05-06 22:34 | 39.02900 | -94.29383 | 16997 ft | 308 kts | 62° |
| 2026-05-06 22:34 | 39.03882 | -94.26952 | 16997 ft | 308 kts | 62° |
| 2026-05-06 22:34 | 39.04907 | -94.24411 | 16997 ft | 308 kts | 62° |
| 2026-05-06 22:35 | 39.06032 | -94.21621 | 16997 ft | 308 kts | 62° |
| 2026-05-06 22:35 | 39.07091 | -94.18991 | 16997 ft | 308 kts | 62° |
| 2026-05-06 22:35 | 39.08171 | -94.16308 | 16997 ft | 308 kts | 62° |
| 2026-05-06 22:35 | 39.09188 | -94.13662 | 16981 ft | 309 kts | 70° |
| 2026-05-06 22:36 | 39.09329 | -94.10928 | 17003 ft | 308 kts | 94° |
| 2026-05-06 22:36 | 39.09139 | -94.07822 | 16998 ft | 308 kts | 95° |
| 2026-05-06 22:36 | 39.08914 | -94.04731 | 16996 ft | 309 kts | 96° |
| 2026-05-06 22:36 | 39.08706 | -94.01965 | 16995 ft | 309 kts | 96° |
| 2026-05-06 22:37 | 39.08499 | -93.99255 | 16999 ft | 309 kts | 96° |
| 2026-05-06 22:37 | 39.08280 | -93.96395 | 16994 ft | 310 kts | 96° |
| 2026-05-06 22:37 | 39.08054 | -93.93476 | 16998 ft | 311 kts | 96° |
| 2026-05-06 22:37 | 39.07805 | -93.90265 | 16998 ft | 311 kts | 96° |
| 2026-05-06 22:38 | 39.07561 | -93.87144 | 16998 ft | 311 kts | 96° |
| 2026-05-06 22:38 | 39.07326 | -93.84124 | 16998 ft | 311 kts | 96° |
| 2026-05-06 22:38 | 39.07090 | -93.81123 | 16998 ft | 311 kts | 96° |
| 2026-05-06 22:38 | 39.06867 | -93.78286 | 16998 ft | 312 kts | 96° |
| 2026-05-06 22:39 | 39.06620 | -93.75164 | 16998 ft | 312 kts | 96° |
| 2026-05-06 22:39 | 39.06361 | -93.71886 | 16998 ft | 312 kts | 96° |
| 2026-05-06 22:39 | 39.06119 | -93.68848 | 16998 ft | 312 kts | 96° |
| 2026-05-06 22:39 | 39.05874 | -93.65781 | 16998 ft | 312 kts | 96° |
| 2026-05-06 22:40 | 39.05641 | -93.62867 | 16995 ft | 312 kts | 96° |
| 2026-05-06 22:40 | 39.05410 | -93.59985 | 16997 ft | 311 kts | 96° |
| 2026-05-06 22:40 | 39.05145 | -93.56705 | 17000 ft | 312 kts | 96° |
| 2026-05-06 22:40 | 39.04889 | -93.53531 | 17000 ft | 312 kts | 96° |
| 2026-05-06 22:41 | 39.04390 | -93.47382 | 16998 ft | 312 kts | 96° |
| 2026-05-06 22:41 | 39.04157 | -93.44536 | 16998 ft | 312 kts | 96° |
| 2026-05-06 22:41 | 39.03916 | -93.41594 | 16998 ft | 312 kts | 96° |
| 2026-05-06 22:42 | 39.03647 | -93.38315 | 16998 ft | 313 kts | 96° |
| 2026-05-06 22:42 | 39.03390 | -93.35201 | 16998 ft | 313 kts | 96° |
| 2026-05-06 22:42 | 39.03141 | -93.32182 | 16996 ft | 313 kts | 97° |
| 2026-05-06 22:42 | 39.02887 | -93.29129 | 16995 ft | 312 kts | 97° |
| 2026-05-06 22:43 | 39.02656 | -93.26356 | 16995 ft | 312 kts | 97° |
| 2026-05-06 22:43 | 39.02394 | -93.23210 | 16995 ft | 312 kts | 97° |
| 2026-05-06 22:43 | 39.02122 | -93.19968 | 16995 ft | 312 kts | 97° |
| 2026-05-06 22:43 | 39.01867 | -93.16933 | 16995 ft | 312 kts | 97° |
| 2026-05-06 22:44 | 39.01614 | -93.13929 | 16995 ft | 313 kts | 97° |
| 2026-05-06 22:44 | 39.01367 | -93.11014 | 16995 ft | 313 kts | 97° |
| 2026-05-06 22:44 | 39.01132 | -93.08244 | 16995 ft | 313 kts | 97° |
| 2026-05-06 22:44 | 39.00855 | -93.04984 | 16995 ft | 313 kts | 97° |
| 2026-05-06 22:45 | 39.00585 | -93.01816 | 16995 ft | 313 kts | 97° |
| 2026-05-06 22:45 | 39.00323 | -92.98759 | 16995 ft | 313 kts | 97° |
| 2026-05-06 22:45 | 39.00062 | -92.95717 | 16995 ft | 313 kts | 97° |
| 2026-05-06 22:45 | 38.99814 | -92.92840 | 16994 ft | 313 kts | 97° |
| 2026-05-06 22:46 | 38.99562 | -92.89924 | 16992 ft | 314 kts | 97° |
| 2026-05-06 22:46 | 38.99280 | -92.86674 | 16991 ft | 314 kts | 97° |
| 2026-05-06 22:46 | 38.99012 | -92.83589 | 16991 ft | 314 kts | 97° |
| 2026-05-06 22:46 | 38.98750 | -92.80584 | 16991 ft | 314 kts | 97° |
| 2026-05-06 22:47 | 38.98489 | -92.77601 | 16991 ft | 314 kts | 97° |
| 2026-05-06 22:47 | 38.98244 | -92.74813 | 16991 ft | 315 kts | 97° |
| 2026-05-06 22:47 | 38.97968 | -92.71674 | 16991 ft | 315 kts | 97° |
| 2026-05-06 22:47 | 38.97679 | -92.68398 | 16992 ft | 315 kts | 97° |
| 2026-05-06 22:48 | 38.97420 | -92.65474 | 16992 ft | 315 kts | 97° |
| 2026-05-06 22:48 | 38.97160 | -92.62543 | 16992 ft | 315 kts | 97° |
| 2026-05-06 22:48 | 38.96904 | -92.59672 | 16992 ft | 315 kts | 97° |
| 2026-05-06 22:48 | 38.96656 | -92.56892 | 16992 ft | 315 kts | 97° |
| 2026-05-06 22:49 | 38.96366 | -92.53653 | 16992 ft | 315 kts | 97° |
| 2026-05-06 22:49 | 38.96088 | -92.50558 | 16992 ft | 315 kts | 97° |
| 2026-05-06 22:49 | 38.95835 | -92.47752 | 16992 ft | 315 kts | 97° |
| 2026-05-06 22:49 | 38.95582 | -92.44950 | 16993 ft | 316 kts | 97° |
| 2026-05-06 22:50 | 38.95325 | -92.42124 | 16977 ft | 315 kts | 97° |
| 2026-05-06 22:50 | 38.95057 | -92.39170 | 16969 ft | 315 kts | 97° |
| 2026-05-06 22:50 | 38.94775 | -92.36070 | 16971 ft | 314 kts | 97° |
| 2026-05-06 22:50 | 38.94516 | -92.33230 | 16972 ft | 314 kts | 97° |
| 2026-05-06 22:51 | 38.94261 | -92.30450 | 16971 ft | 314 kts | 97° |
| 2026-05-06 22:51 | 38.94007 | -92.27686 | 16971 ft | 314 kts | 97° |
| 2026-05-06 22:51 | 38.93744 | -92.24828 | 16972 ft | 313 kts | 97° |
| 2026-05-06 22:51 | 38.93445 | -92.21596 | 16972 ft | 314 kts | 97° |
| 2026-05-06 22:52 | 38.93174 | -92.18671 | 16972 ft | 314 kts | 97° |
| 2026-05-06 22:52 | 38.92915 | -92.15876 | 16972 ft | 314 kts | 97° |
| 2026-05-06 22:52 | 38.92657 | -92.13107 | 16972 ft | 314 kts | 98° |
| 2026-05-06 22:52 | 38.92397 | -92.10323 | 16972 ft | 314 kts | 98° |
| 2026-05-06 22:53 | 38.92111 | -92.07273 | 16972 ft | 314 kts | 98° |
| 2026-05-06 22:53 | 38.91831 | -92.04290 | 16972 ft | 314 kts | 98° |
| 2026-05-06 22:53 | 38.91566 | -92.01481 | 16972 ft | 314 kts | 98° |
| 2026-05-06 22:53 | 38.91303 | -91.98695 | 16972 ft | 314 kts | 98° |
| 2026-05-06 22:54 | 38.91037 | -91.95881 | 16973 ft | 314 kts | 98° |
| 2026-05-06 22:54 | 38.90763 | -91.92998 | 16987 ft | 315 kts | 98° |
| 2026-05-06 22:54 | 38.90441 | -91.89610 | 16981 ft | 315 kts | 98° |
| 2026-05-06 22:54 | 38.90142 | -91.86481 | 16984 ft | 316 kts | 98° |
| 2026-05-06 22:55 | 38.89857 | -91.83499 | 16981 ft | 316 kts | 98° |
| 2026-05-06 22:55 | 38.89574 | -91.80557 | 16974 ft | 316 kts | 98° |
| 2026-05-06 22:55 | 38.89305 | -91.77757 | 16973 ft | 316 kts | 98° |
| 2026-05-06 22:55 | 38.89012 | -91.74720 | 16973 ft | 316 kts | 98° |
| 2026-05-06 22:56 | 38.88692 | -91.71423 | 16973 ft | 316 kts | 98° |
| 2026-05-06 22:56 | 38.88380 | -91.68207 | 16973 ft | 316 kts | 98° |
| 2026-05-06 22:56 | 38.88076 | -91.65073 | 16974 ft | 316 kts | 98° |
| 2026-05-06 22:56 | 38.87782 | -91.62066 | 16974 ft | 316 kts | 98° |
| 2026-05-06 22:57 | 38.87509 | -91.59267 | 16973 ft | 317 kts | 98° |
| 2026-05-06 22:57 | 38.87197 | -91.56084 | 16972 ft | 319 kts | 98° |
| 2026-05-06 22:57 | 38.86862 | -91.52673 | 16971 ft | 322 kts | 98° |
| 2026-05-06 22:57 | 38.86549 | -91.49504 | 16969 ft | 324 kts | 99° |
| 2026-05-06 22:58 | 38.86236 | -91.46337 | 16965 ft | 327 kts | 99° |
| 2026-05-06 22:58 | 38.85944 | -91.43385 | 16956 ft | 330 kts | 99° |
| 2026-05-06 22:58 | 38.85650 | -91.40438 | 16953 ft | 333 kts | 99° |
| 2026-05-06 22:58 | 38.85304 | -91.36999 | 16951 ft | 334 kts | 99° |
| 2026-05-06 22:59 | 38.84978 | -91.33749 | 16949 ft | 334 kts | 100° |
| 2026-05-06 22:59 | 38.84648 | -91.30475 | 16948 ft | 333 kts | 99° |
| 2026-05-06 22:59 | 38.84328 | -91.27298 | 16948 ft | 330 kts | 99° |
| 2026-05-06 22:59 | 38.84033 | -91.24374 | 16949 ft | 328 kts | 99° |
| 2026-05-06 23:00 | 38.83730 | -91.21373 | 16952 ft | 326 kts | 99° |
| 2026-05-06 23:00 | 38.83403 | -91.18143 | 16953 ft | 325 kts | 99° |
| 2026-05-06 23:00 | 38.83103 | -91.15188 | 16953 ft | 324 kts | 99° |
| 2026-05-06 23:00 | 38.82809 | -91.12306 | 16953 ft | 324 kts | 99° |
| 2026-05-06 23:01 | 38.82513 | -91.09414 | 16954 ft | 324 kts | 99° |
| 2026-05-06 23:01 | 38.82223 | -91.06587 | 16954 ft | 324 kts | 99° |
| 2026-05-06 23:01 | 38.81899 | -91.03429 | 16954 ft | 324 kts | 99° |
| 2026-05-06 23:01 | 38.81586 | -91.00391 | 16954 ft | 324 kts | 99° |
| 2026-05-06 23:02 | 38.81292 | -90.97543 | 16955 ft | 324 kts | 99° |
| 2026-05-06 23:02 | 38.80994 | -90.94668 | 16955 ft | 324 kts | 99° |
| 2026-05-06 23:02 | 38.80696 | -90.91794 | 16957 ft | 324 kts | 99° |
| 2026-05-06 23:02 | 38.80391 | -90.88857 | 16954 ft | 325 kts | 99° |
| 2026-05-06 23:03 | 38.80061 | -90.85699 | 16953 ft | 325 kts | 99° |
| 2026-05-06 23:03 | 38.79754 | -90.82766 | 16951 ft | 325 kts | 99° |
| 2026-05-06 23:03 | 38.79453 | -90.79890 | 16947 ft | 325 kts | 99° |
| 2026-05-06 23:03 | 38.79152 | -90.77027 | 16946 ft | 325 kts | 99° |
| 2026-05-06 23:04 | 38.78851 | -90.74174 | 16946 ft | 325 kts | 99° |
| 2026-05-06 23:04 | 38.78539 | -90.71215 | 16947 ft | 325 kts | 99° |
| 2026-05-06 23:04 | 38.78200 | -90.68018 | 16947 ft | 325 kts | 99° |
| 2026-05-06 23:04 | 38.77892 | -90.65114 | 16947 ft | 325 kts | 99° |
| 2026-05-06 23:05 | 38.77586 | -90.62238 | 16947 ft | 326 kts | 99° |
| 2026-05-06 23:05 | 38.77278 | -90.59356 | 16947 ft | 326 kts | 99° |
| 2026-05-06 23:05 | 38.76974 | -90.56511 | 16946 ft | 326 kts | 99° |
| 2026-05-06 23:05 | 38.76653 | -90.53520 | 16948 ft | 325 kts | 99° |
| 2026-05-06 23:06 | 38.76316 | -90.50380 | 16951 ft | 325 kts | 99° |
| 2026-05-06 23:06 | 38.75999 | -90.47437 | 16955 ft | 324 kts | 99° |
| 2026-05-06 23:06 | 38.75691 | -90.44578 | 16957 ft | 324 kts | 99° |
| 2026-05-06 23:06 | 38.75382 | -90.41727 | 16957 ft | 324 kts | 99° |
| 2026-05-06 23:07 | 38.75072 | -90.38867 | 16957 ft | 324 kts | 99° |
| 2026-05-06 23:07 | 38.74765 | -90.36042 | 16957 ft | 324 kts | 99° |
| 2026-05-06 23:07 | 38.74432 | -90.32964 | 16954 ft | 324 kts | 99° |
| 2026-05-06 23:07 | 38.74102 | -90.29891 | 16952 ft | 324 kts | 99° |
| 2026-05-06 23:08 | 38.73796 | -90.27030 | 16953 ft | 324 kts | 99° |
| 2026-05-06 23:08 | 38.73490 | -90.24172 | 16953 ft | 324 kts | 99° |
| 2026-05-06 23:08 | 38.73186 | -90.21322 | 16953 ft | 323 kts | 99° |
| 2026-05-06 23:08 | 38.72903 | -90.18619 | 16939 ft | 298 kts | 99° |
| 2026-05-06 23:09 | 38.72617 | -90.15813 | 16729 ft | 287 kts | 99° |
| 2026-05-06 23:09 | 38.72346 | -90.13151 | 16461 ft | 282 kts | 99° |
| 2026-05-06 23:09 | 38.72095 | -90.10667 | 16207 ft | 279 kts | 99° |
| 2026-05-06 23:09 | 38.71843 | -90.08179 | 15951 ft | 277 kts | 99° |
| 2026-05-06 23:10 | 38.71595 | -90.05750 | 15701 ft | 275 kts | 99° |
| 2026-05-06 23:10 | 38.71345 | -90.03310 | 15448 ft | 273 kts | 99° |
| 2026-05-06 23:10 | 38.71070 | -90.00655 | 15174 ft | 272 kts | 99° |
| 2026-05-06 23:10 | 38.70814 | -89.98183 | 14918 ft | 271 kts | 99° |
| 2026-05-06 23:11 | 38.70564 | -89.95790 | 14670 ft | 270 kts | 99° |
| 2026-05-06 23:11 | 38.70310 | -89.93382 | 14420 ft | 269 kts | 99° |
| 2026-05-06 23:11 | 38.70059 | -89.91017 | 14159 ft | 269 kts | 99° |
| 2026-05-06 23:11 | 38.69769 | -89.88316 | 13757 ft | 272 kts | 99° |
| 2026-05-06 23:12 | 38.69463 | -89.85516 | 13355 ft | 273 kts | 99° |
| 2026-05-06 23:12 | 38.69166 | -89.82866 | 12977 ft | 273 kts | 99° |
| 2026-05-06 23:12 | 38.68870 | -89.80261 | 12609 ft | 273 kts | 99° |
| 2026-05-06 23:12 | 38.68586 | -89.77801 | 12262 ft | 272 kts | 99° |
| 2026-05-06 23:13 | 38.68308 | -89.75398 | 11923 ft | 270 kts | 99° |
| 2026-05-06 23:13 | 38.67978 | -89.72585 | 11528 ft | 269 kts | 99° |
| 2026-05-06 23:13 | 38.67659 | -89.69881 | 11148 ft | 267 kts | 99° |
| 2026-05-06 23:13 | 38.67360 | -89.67363 | 10794 ft | 266 kts | 99° |
| 2026-05-06 23:14 | 38.67063 | -89.64884 | 10446 ft | 265 kts | 99° |
| 2026-05-06 23:14 | 38.66782 | -89.62557 | 10120 ft | 263 kts | 99° |
| 2026-05-06 23:14 | 38.66485 | -89.60103 | 9952 ft | 255 kts | 99° |
| 2026-05-06 23:14 | 38.66157 | -89.57396 | 9930 ft | 244 kts | 99° |
| 2026-05-06 23:15 | 38.65881 | -89.55099 | 9929 ft | 237 kts | 99° |
| 2026-05-06 23:15 | 38.65620 | -89.52932 | 9749 ft | 241 kts | 98° |
| 2026-05-06 23:15 | 38.65344 | -89.50659 | 9447 ft | 247 kts | 98° |
| 2026-05-06 23:15 | 38.65075 | -89.48488 | 9168 ft | 250 kts | 98° |
| 2026-05-06 23:16 | 38.64767 | -89.46024 | 8861 ft | 251 kts | 98° |
| 2026-05-06 23:16 | 38.64431 | -89.43364 | 8531 ft | 251 kts | 98° |
| 2026-05-06 23:16 | 38.64140 | -89.41077 | 8249 ft | 251 kts | 98° |
| 2026-05-06 23:16 | 38.63586 | -89.38930 | 7935 ft | 251 kts | 127° |
| 2026-05-06 23:17 | 38.62085 | -89.37703 | 7618 ft | 248 kts | 168° |
| 2026-05-06 23:17 | 38.60422 | -89.37922 | 7316 ft | 243 kts | 206° |
| 2026-05-06 23:17 | 38.59140 | -89.39712 | 6964 ft | 238 kts | 251° |
| 2026-05-06 23:17 | 38.59074 | -89.42084 | 6644 ft | 235 kts | 274° |
| 2026-05-06 23:18 | 38.59254 | -89.44169 | 6372 ft | 234 kts | 277° |
| 2026-05-06 23:18 | 38.59484 | -89.46271 | 6098 ft | 233 kts | 278° |
| 2026-05-06 23:18 | 38.59729 | -89.48308 | 5952 ft | 228 kts | 279° |
| 2026-05-06 23:18 | 38.59982 | -89.50320 | 5930 ft | 221 kts | 279° |
| 2026-05-06 23:19 | 38.60274 | -89.52592 | 5921 ft | 215 kts | 279° |
| 2026-05-06 23:19 | 38.60535 | -89.54607 | 5797 ft | 217 kts | 280° |
| 2026-05-06 23:19 | 38.60791 | -89.56573 | 5677 ft | 218 kts | 280° |
| 2026-05-06 23:19 | 38.61063 | -89.58656 | 5551 ft | 218 kts | 280° |
| 2026-05-06 23:20 | 38.61315 | -89.60586 | 5436 ft | 218 kts | 280° |
| 2026-05-06 23:20 | 38.61595 | -89.62733 | 5309 ft | 219 kts | 280° |
| 2026-05-06 23:20 | 38.61892 | -89.65004 | 5181 ft | 223 kts | 280° |
| 2026-05-06 23:20 | 38.62175 | -89.67182 | 5063 ft | 225 kts | 280° |
| 2026-05-06 23:21 | 38.62446 | -89.69264 | 4989 ft | 225 kts | 280° |
| 2026-05-06 23:21 | 38.62707 | -89.71273 | 4975 ft | 227 kts | 280° |
| 2026-05-06 23:21 | 38.62974 | -89.73328 | 4986 ft | 243 kts | 280° |
| 2026-05-06 23:21 | 38.63302 | -89.75860 | 4985 ft | 253 kts | 280° |
| 2026-05-06 23:22 | 38.63612 | -89.78258 | 4976 ft | 241 kts | 280° |
| 2026-05-06 23:22 | 38.63887 | -89.80399 | 4976 ft | 234 kts | 280° |
| 2026-05-06 23:22 | 38.64163 | -89.82539 | 4977 ft | 230 kts | 280° |
| 2026-05-06 23:22 | 38.64422 | -89.84544 | 4978 ft | 228 kts | 280° |
| 2026-05-06 23:23 | 38.64685 | -89.86600 | 4977 ft | 228 kts | 280° |
| 2026-05-06 23:23 | 38.64990 | -89.88964 | 4990 ft | 248 kts | 280° |
| 2026-05-06 23:23 | 38.65284 | -89.91266 | 4978 ft | 247 kts | 280° |
| 2026-05-06 23:23 | 38.65573 | -89.93525 | 4981 ft | 252 kts | 280° |
| 2026-05-06 23:24 | 38.65858 | -89.95755 | 5013 ft | 254 kts | 280° |
| 2026-05-06 23:24 | 38.66139 | -89.97963 | 5000 ft | 246 kts | 280° |
| 2026-05-06 23:24 | 38.66416 | -90.00143 | 4908 ft | 225 kts | 280° |
| 2026-05-06 23:24 | 38.66684 | -90.02251 | 4669 ft | 217 kts | 280° |
| 2026-05-06 23:25 | 38.66931 | -90.04202 | 4375 ft | 217 kts | 280° |
| 2026-05-06 23:25 | 38.67180 | -90.06160 | 4005 ft | 219 kts | 280° |
| 2026-05-06 23:25 | 38.67432 | -90.08153 | 3633 ft | 220 kts | 280° |
| 2026-05-06 23:25 | 38.67681 | -90.10121 | 3517 ft | 232 kts | 280° |
| 2026-05-06 23:26 | 38.67945 | -90.12210 | 3497 ft | 246 kts | 280° |
| 2026-05-06 23:26 | 38.68236 | -90.14523 | 3480 ft | 232 kts | 280° |
| 2026-05-06 23:26 | 38.68498 | -90.16604 | 3267 ft | 221 kts | 280° |
| 2026-05-06 23:26 | 38.68739 | -90.18522 | 3014 ft | 190 kts | 280° |
| 2026-05-06 23:27 | 38.68923 | -90.20005 | 3064 ft | 156 kts | 281° |
| 2026-05-06 23:27 | 38.69078 | -90.21246 | 2993 ft | 130 kts | 281° |
| 2026-05-06 23:27 | 38.69212 | -90.22322 | 2981 ft | 116 kts | 281° |
| 2026-05-06 23:27 | 38.69351 | -90.23416 | 2661 ft | 129 kts | 281° |
| 2026-05-06 23:28 | 38.69497 | -90.24577 | 2343 ft | 133 kts | 281° |
| 2026-05-06 23:28 | 38.69638 | -90.25710 | 2186 ft | 119 kts | 281° |
| 2026-05-06 23:28 | 38.69768 | -90.26748 | 2035 ft | 116 kts | 281° |
| 2026-05-06 23:28 | 38.69891 | -90.27736 | 1997 ft | 107 kts | 281° |
| 2026-05-06 23:29 | 38.70006 | -90.28644 | 1991 ft | 101 kts | 284° |
| 2026-05-06 23:29 | 38.70335 | -90.29482 | 1867 ft | 106 kts | 303° |
| 2026-05-06 23:29 | 38.70738 | -90.30319 | 1715 ft | 110 kts | 304° |
| 2026-05-06 23:29 | 38.71149 | -90.31156 | 1547 ft | 111 kts | 304° |
| 2026-05-06 23:30 | 38.71558 | -90.31987 | 1513 ft | 111 kts | 304° |
| 2026-05-06 23:30 | 38.71974 | -90.32830 | 1415 ft | 108 kts | 304° |
| 2026-05-06 23:30 | 38.72377 | -90.33647 | 1123 ft | 108 kts | 305° |
| 2026-05-06 23:30 | 38.72794 | -90.34492 | 1003 ft | 96 kts | 305° |
| 2026-05-06 23:31 | 38.73137 | -90.35188 | 990 ft | 87 kts | 306° |
| 2026-05-06 23:31 | 38.73457 | -90.35837 | 997 ft | 88 kts | 306° |
| 2026-05-06 23:31 | 38.73803 | -90.36558 | 982 ft | 100 kts | 304° |
| 2026-05-06 23:31 | 38.74179 | -90.37321 | 811 ft | 104 kts | 306° |
| 2026-05-06 23:32 | 38.74591 | -90.38139 | 650 ft | 106 kts | 305° |
| 2026-05-06 23:32 | 38.74937 | -90.38843 | 579 ft | 69 kts | 305° |
| 2026-05-06 23:32 | 38.75140 | -90.39244 | 592 ft | 30 kts | 305° |
| 2026-05-06 23:32 | 38.75268 | -90.39508 | 602 ft | 41 kts | 297° |
| 2026-05-06 23:33 | 38.75422 | -90.39822 | 607 ft | 42 kts | 303° |
| 2026-05-06 23:33 | 38.75577 | -90.40067 | 599 ft | 32 kts | 321° |
| 2026-05-06 23:33 | 38.75670 | -90.40150 | 596 ft | 0 kts | 341° |
| 2026-05-06 23:34 | 38.75673 | -90.40151 | 596 ft | 5 kts | 340° |
| 2026-05-06 23:34 | 38.75666 | -90.40062 | 599 ft | 25 kts | 120° |
| 2026-05-06 23:34 | 38.75533 | -90.39789 | 607 ft | 43 kts | 122° |
| 2026-05-06 23:35 | 38.75372 | -90.39460 | 599 ft | 43 kts | 123° |
| 2026-05-06 23:35 | 38.75225 | -90.39157 | 587 ft | 37 kts | 126° |
| 2026-05-06 23:35 | 38.75096 | -90.38892 | 581 ft | 31 kts | 123° |
| 2026-05-06 23:35 | 38.74982 | -90.38671 | 572 ft | 27 kts | 124° |
| 2026-05-06 23:36 | 38.74882 | -90.38466 | 558 ft | 25 kts | 126° |
| 2026-05-06 23:36 | 38.74814 | -90.38332 | 549 ft | 9 kts | 117° |
| 2026-05-06 23:36 | 38.74768 | -90.38230 | 544 ft | 21 kts | 110° |
| 2026-05-06 23:36 | 38.74823 | -90.38049 | 541 ft | 28 kts | 62° |
| 2026-05-06 23:37 | 38.74914 | -90.37824 | 537 ft | 30 kts | 63° |
| 2026-05-06 23:37 | 38.75023 | -90.37666 | 537 ft | 16 kts | 326° |
| 2026-05-06 23:37 | 38.75123 | -90.37852 | 539 ft | 32 kts | 300° |
| 2026-05-06 23:37 | 38.75238 | -90.38019 | 544 ft | 16 kts | 25° |
| 2026-05-06 23:38 | 38.75312 | -90.37962 | 545 ft | 0 kts | 34° |
| 2026-05-06 23:38 | 38.75368 | -90.37905 | 545 ft | 36 kts | 67° |
| 2026-05-06 23:38 | 38.75335 | -90.37661 | 543 ft | 25 kts | 82° |
| 2026-05-06 23:38 | 38.75371 | -90.37402 | 538 ft | 30 kts | 78° |
| 2026-05-06 23:39 | 38.75413 | -90.37130 | 537 ft | 28 kts | 78° |
| 2026-05-06 23:39 | 38.75454 | -90.36876 | 534 ft | 27 kts | 80° |
| 2026-05-06 23:39 | 38.75568 | -90.36853 | 535 ft | 24 kts | 347° |
| 2026-05-06 23:39 | 38.75661 | -90.36897 | 538 ft | 0 kts | 261° |